Time;durP1;ratioP1;P1;durP2;ratioP2;P2;SDS_P1;SDS_P2;PMS_P1;PMS_P2;Temp;Humidity;BMP_temperature;BMP_pressure;BME280_temperature;BME280_humidity;BME280_pressure;Samples;Min_cycle;Max_cycle;Signal;HPM_P1;HPM_P2
2022/03/25 00:01:23;;;;;;;81.55;14.75;;;;;;;;;;5115507;28;20295;-70
2022/03/25 00:03:50;;;;;;;77.43;15.85;;;;;;;;;;5114830;28;20302;-69
2022/03/25 00:06:17;;;;;;;81.18;16.95;;;;;;;;;;5114369;28;20787;-69
2022/03/25 00:08:44;;;;;;;77.25;15.65;;;;;;;;;;5113983;28;20298;-69
2022/03/25 00:11:11;;;;;;;80.30;15.00;;;;;;;;;;5115104;28;20294;-69
2022/03/25 00:13:39;;;;;;;78.45;15.88;;;;;;;;;;5114888;28;20715;-69
2022/03/25 00:16:08;;;;;;;82.78;16.45;;;;;;;;;;5115209;27;20256;-69
2022/03/25 00:18:35;;;;;;;81.28;16.45;;;;;;;;;;5114112;28;20290;-68
2022/03/25 00:21:02;;;;;;;80.75;15.07;;;;;;;;;;5114932;28;20294;-69
2022/03/25 00:23:30;;;;;;;76.63;14.15;;;;;;;;;;5114209;28;20310;-71
2022/03/25 00:25:57;;;;;;;79.00;15.48;;;;;;;;;;5113560;28;20404;-72
2022/03/25 00:28:24;;;;;;;77.85;13.52;;;;;;;;;;5109915;28;20373;-72
2022/03/25 00:30:51;;;;;;;81.72;14.32;;;;;;;;;;5114613;28;20294;-71
2022/03/25 00:33:20;;;;;;;75.60;14.50;;;;;;;;;;5114550;28;20231;-70
2022/03/25 00:35:47;;;;;;;77.20;14.27;;;;;;;;;;5114932;28;20290;-72
2022/03/25 00:38:14;;;;;;;74.63;13.98;;;;;;;;;;5113782;28;20315;-71
2022/03/25 00:40:44;;;;;;;80.63;14.52;;;;;;;;;;5114854;28;20294;-71
2022/03/25 00:43:11;;;;;;;72.68;13.98;;;;;;;;;;5113948;28;20246;-71
2022/03/25 00:45:38;;;;;;;77.93;13.63;;;;;;;;;;5114428;28;20290;-72
2022/03/25 00:48:07;;;;;;;83.03;15.93;;;;;;;;;;5112681;28;20318;-71
2022/03/25 00:50:36;;;;;;;74.60;14.27;;;;;;;;;;5114137;28;20242;-71
2022/03/25 00:53:03;;;;;;;77.60;13.77;;;;;;;;;;5114504;28;20585;-71
2022/03/25 00:55:30;;;;;;;79.43;15.25;;;;;;;;;;5113432;28;20732;-71
2022/03/25 00:57:58;;;;;;;76.50;14.77;;;;;;;;;;5112383;27;20670;-71
2022/03/25 01:00:25;;;;;;;78.28;16.05;;;;;;;;;;5111277;28;20262;-71
2022/03/25 01:02:52;;;;;;;77.70;15.98;;;;;;;;;;5113763;28;20247;-70
2022/03/25 01:05:19;;;;;;;90.35;19.17;;;;;;;;;;5113464;28;20226;-70
2022/03/25 01:07:48;;;;;;;79.78;16.48;;;;;;;;;;5112879;28;20779;-71
2022/03/25 01:10:15;;;;;;;77.60;15.00;;;;;;;;;;5113805;28;20294;-71
2022/03/25 01:12:42;;;;;;;76.95;15.05;;;;;;;;;;5113813;28;20290;-71
2022/03/25 01:15:10;;;;;;;81.90;17.23;;;;;;;;;;5113610;28;20294;-71
2022/03/25 01:17:37;;;;;;;78.75;15.10;;;;;;;;;;5114693;28;20270;-71
2022/03/25 01:20:05;;;;;;;82.47;16.00;;;;;;;;;;5113768;28;20294;-71
2022/03/25 01:22:32;;;;;;;82.20;17.10;;;;;;;;;;5113611;28;20739;-71
2022/03/25 01:25:01;;;;;;;77.15;15.60;;;;;;;;;;5113651;28;20777;-71
2022/03/25 01:27:28;;;;;;;78.82;15.60;;;;;;;;;;5112825;28;20327;-71
2022/03/25 01:29:55;;;;;;;85.18;16.08;;;;;;;;;;5111632;28;20318;-71
2022/03/25 01:32:24;;;;;;;80.53;16.88;;;;;;;;;;5109559;28;20295;-70
2022/03/25 01:34:51;;;;;;;80.47;16.88;;;;;;;;;;5113444;28;20203;-71
2022/03/25 01:37:19;;;;;;;77.18;16.65;;;;;;;;;;5112928;28;20306;-70
2022/03/25 01:39:46;;;;;;;78.47;15.73;;;;;;;;;;5113222;28;20290;-71
2022/03/25 01:42:14;;;;;;;78.18;16.08;;;;;;;;;;5113347;28;20310;-71
2022/03/25 01:44:41;;;;;;;77.03;14.40;;;;;;;;;;5112748;28;20311;-71
2022/03/25 01:47:09;;;;;;;78.47;15.65;;;;;;;;;;5112734;28;20307;-70
2022/03/25 01:49:36;;;;;;;79.60;15.60;;;;;;;;;;5112332;28;20291;-72
2022/03/25 01:52:04;;;;;;;81.60;17.25;;;;;;;;;;5113239;28;20286;-71
2022/03/25 01:54:32;;;;;;;76.10;17.58;;;;;;;;;;5112961;28;20287;-70
2022/03/25 01:57:01;;;;;;;81.65;18.08;;;;;;;;;;5113012;28;20229;-71
2022/03/25 01:59:30;;;;;;;85.10;18.08;;;;;;;;;;5112698;28;20220;-71
2022/03/25 02:01:57;;;;;;;81.00;17.10;;;;;;;;;;5111966;28;20210;-72
2022/03/25 02:04:25;;;;;;;80.70;16.50;;;;;;;;;;5108953;28;20806;-70
2022/03/25 02:06:53;;;;;;;76.63;15.50;;;;;;;;;;5112744;28;20235;-72
2022/03/25 02:09:20;;;;;;;76.03;16.85;;;;;;;;;;5110858;28;20225;-71
2022/03/25 02:11:47;;;;;;;77.60;16.02;;;;;;;;;;5112861;27;20204;-70
2022/03/25 02:14:16;;;;;;;78.60;17.30;;;;;;;;;;5112823;28;20354;-71
2022/03/25 02:16:46;;;;;;;78.80;15.85;;;;;;;;;;5112758;28;20227;-72
2022/03/25 02:19:13;;;;;;;76.18;15.52;;;;;;;;;;5111952;28;20203;-72
2022/03/25 02:21:43;;;;;;;81.40;15.77;;;;;;;;;;5112832;28;20207;-72
2022/03/25 02:24:11;;;;;;;81.22;16.45;;;;;;;;;;5100430;28;20220;-71
2022/03/25 02:26:38;;;;;;;76.47;16.83;;;;;;;;;;5092126;28;20604;-71
2022/03/25 02:29:05;;;;;;;78.75;15.80;;;;;;;;;;5090502;28;20211;-71
2022/03/25 02:31:33;;;;;;;79.53;16.35;;;;;;;;;;5092394;28;20295;-71
2022/03/25 02:34:02;;;;;;;76.93;15.00;;;;;;;;;;5091629;28;20196;-71
2022/03/25 02:36:29;;;;;;;76.78;15.43;;;;;;;;;;5107287;28;20227;-71
2022/03/25 02:38:57;;;;;;;81.63;14.43;;;;;;;;;;5111587;28;20242;-70
2022/03/25 02:41:24;;;;;;;77.72;15.98;;;;;;;;;;5112446;28;20278;-71
2022/03/25 02:43:52;;;;;;;78.95;14.95;;;;;;;;;;5111978;28;20299;-71
2022/03/25 02:46:19;;;;;;;77.72;15.30;;;;;;;;;;5111896;28;20224;-71
2022/03/25 02:48:46;;;;;;;83.78;16.55;;;;;;;;;;5110937;28;20204;-71
2022/03/25 02:51:13;;;;;;;75.65;15.00;;;;;;;;;;5111889;28;20200;-71
2022/03/25 02:53:40;;;;;;;77.57;16.13;;;;;;;;;;5112059;28;20207;-72
2022/03/25 02:56:09;;;;;;;77.03;14.32;;;;;;;;;;5112011;28;20607;-71
2022/03/25 02:58:36;;;;;;;79.03;15.05;;;;;;;;;;5111295;28;20208;-71
2022/03/25 03:01:03;;;;;;;76.38;15.73;;;;;;;;;;5111842;28;20214;-71
2022/03/25 03:03:30;;;;;;;76.05;15.05;;;;;;;;;;5112107;28;20308;-71
2022/03/25 03:05:57;;;;;;;81.50;15.48;;;;;;;;;;5111932;28;20596;-71
2022/03/25 03:08:24;;;;;;;78.80;15.10;;;;;;;;;;5092812;28;20299;-72
2022/03/25 03:10:52;;;;;;;79.75;16.23;;;;;;;;;;5090814;28;20204;-71
2022/03/25 03:13:20;;;;;;;76.63;14.27;;;;;;;;;;5091450;28;20305;-71
2022/03/25 03:15:48;;;;;;;79.22;16.27;;;;;;;;;;5091850;28;20204;-71
2022/03/25 03:18:15;;;;;;;78.70;14.82;;;;;;;;;;5090968;28;20538;-71
2022/03/25 03:20:43;;;;;;;83.20;15.18;;;;;;;;;;5095731;28;20238;-71
2022/03/25 03:23:10;;;;;;;77.47;15.75;;;;;;;;;;5095703;28;20208;-71
2022/03/25 03:25:37;;;;;;;78.63;16.42;;;;;;;;;;5095129;28;20224;-72
2022/03/25 03:28:05;;;;;;;80.72;15.02;;;;;;;;;;5094666;28;20708;-71
2022/03/25 03:30:33;;;;;;;76.90;16.25;;;;;;;;;;5094754;28;20216;-71
2022/03/25 03:33:04;;;;;;;82.70;17.02;;;;;;;;;;5095167;28;20200;-71
2022/03/25 03:35:32;;;;;;;74.75;15.15;;;;;;;;;;5095902;28;20200;-69
2022/03/25 03:37:59;;;;;;;79.32;15.80;;;;;;;;;;5094843;28;20220;-71
2022/03/25 03:40:26;;;;;;;76.47;14.18;;;;;;;;;;5108194;28;20214;-71
2022/03/25 03:42:53;;;;;;;76.70;13.55;;;;;;;;;;5115607;28;20199;-71
2022/03/25 03:45:21;;;;;;;78.03;15.57;;;;;;;;;;5115384;28;20199;-71
2022/03/25 03:47:49;;;;;;;79.07;14.05;;;;;;;;;;5114591;28;20234;-69
2022/03/25 03:50:17;;;;;;;74.90;13.98;;;;;;;;;;5114475;27;20208;-71
2022/03/25 03:52:45;;;;;;;76.15;15.05;;;;;;;;;;5115568;28;20199;-71
2022/03/25 03:55:12;;;;;;;77.28;14.10;;;;;;;;;;5115151;28;20230;-71
2022/03/25 03:57:40;;;;;;;76.05;14.52;;;;;;;;;;5114606;28;20232;-71
2022/03/25 04:00:10;;;;;;;73.15;14.05;;;;;;;;;;5115122;28;20200;-71
2022/03/25 04:02:37;;;;;;;75.95;13.98;;;;;;;;;;5115619;28;20233;-71
2022/03/25 04:05:06;;;;;;;77.07;14.68;;;;;;;;;;5115259;27;20287;-70
2022/03/25 04:07:34;;;;;;;81.53;16.35;;;;;;;;;;5114334;28;20228;-71
2022/03/25 04:10:01;;;;;;;80.30;13.15;;;;;;;;;;5114147;28;20232;-71
2022/03/25 04:12:28;;;;;;;76.70;13.50;;;;;;;;;;5111392;28;20218;-70
2022/03/25 04:14:56;;;;;;;78.38;14.57;;;;;;;;;;5114984;28;20231;-71
2022/03/25 04:17:25;;;;;;;79.47;15.02;;;;;;;;;;5114178;28;20223;-71
2022/03/25 04:19:53;;;;;;;78.57;14.45;;;;;;;;;;5114933;28;20870;-71
2022/03/25 04:22:21;;;;;;;82.88;14.45;;;;;;;;;;5114648;28;20301;-71
2022/03/25 04:24:48;;;;;;;79.10;15.45;;;;;;;;;;5115083;28;20574;-71
2022/03/25 04:27:15;;;;;;;76.88;15.30;;;;;;;;;;5117609;28;20232;-71
2022/03/25 04:29:42;;;;;;;76.65;15.15;;;;;;;;;;5114267;28;20318;-71
2022/03/25 04:32:10;;;;;;;77.07;14.13;;;;;;;;;;5113159;28;20217;-71
2022/03/25 04:34:37;;;;;;;79.38;16.05;;;;;;;;;;5114537;28;20595;-71
2022/03/25 04:37:04;;;;;;;89.38;15.38;;;;;;;;;;5114321;28;20232;-71
2022/03/25 04:39:33;;;;;;;79.30;14.82;;;;;;;;;;5114062;28;20248;-69
2022/03/25 04:42:00;;;;;;;79.68;16.27;;;;;;;;;;5107188;27;20200;-71
2022/03/25 04:44:27;;;;;;;79.82;13.50;;;;;;;;;;5094096;28;20290;-71
2022/03/25 04:46:55;;;;;;;80.63;15.60;;;;;;;;;;5093771;28;20319;-71
2022/03/25 04:49:22;;;;;;;74.35;13.90;;;;;;;;;;5092747;28;20204;-71
2022/03/25 04:51:50;;;;;;;79.32;14.75;;;;;;;;;;5093034;28;20211;-70
2022/03/25 04:54:17;;;;;;;80.72;15.52;;;;;;;;;;5093412;28;20211;-71
2022/03/25 04:56:45;;;;;;;81.63;15.10;;;;;;;;;;5093827;28;20632;-70
2022/03/25 04:59:13;;;;;;;74.28;14.55;;;;;;;;;;5093111;28;20644;-70
2022/03/25 05:01:40;;;;;;;74.07;14.93;;;;;;;;;;5093604;28;20208;-69
2022/03/25 05:04:07;;;;;;;74.82;15.07;;;;;;;;;;5093384;28;20211;-71
2022/03/25 05:06:34;;;;;;;79.68;15.40;;;;;;;;;;5093048;28;20225;-70
2022/03/25 05:09:01;;;;;;;77.88;14.95;;;;;;;;;;5092824;28;20204;-71
2022/03/25 05:11:28;;;;;;;82.10;15.45;;;;;;;;;;5092881;28;20214;-70
2022/03/25 05:13:57;;;;;;;80.85;14.70;;;;;;;;;;5089705;28;20210;-71
2022/03/25 05:16:24;;;;;;;82.55;15.25;;;;;;;;;;5092968;28;20232;-68
2022/03/25 05:18:52;;;;;;;77.78;14.65;;;;;;;;;;5092878;28;20209;-71
2022/03/25 05:21:19;;;;;;;75.85;14.40;;;;;;;;;;5093410;28;20609;-71
2022/03/25 05:23:46;;;;;;;80.55;15.40;;;;;;;;;;5093289;28;20331;-70
2022/03/25 05:26:14;;;;;;;73.65;13.82;;;;;;;;;;5093269;28;20295;-71
2022/03/25 05:28:41;;;;;;;81.57;15.07;;;;;;;;;;5092454;28;20204;-71
2022/03/25 05:31:10;;;;;;;74.47;13.30;;;;;;;;;;5093285;28;20614;-71
2022/03/25 05:33:37;;;;;;;76.95;15.05;;;;;;;;;;5092741;28;20710;-70
2022/03/25 05:36:05;;;;;;;82.32;16.98;;;;;;;;;;5093031;28;20224;-70
2022/03/25 05:38:32;;;;;;;74.70;14.00;;;;;;;;;;5092425;28;20205;-70
2022/03/25 05:41:00;;;;;;;83.93;15.48;;;;;;;;;;5092822;28;20691;-70
2022/03/25 05:43:28;;;;;;;77.13;14.93;;;;;;;;;;5091517;28;20212;-70
2022/03/25 05:45:55;;;;;;;79.90;15.50;;;;;;;;;;5090029;28;20288;-70
2022/03/25 05:48:24;;;;;;;90.30;16.50;;;;;;;;;;5092295;28;20719;-71
2022/03/25 05:50:51;;;;;;;76.55;15.15;;;;;;;;;;5092607;28;20212;-69
2022/03/25 05:53:18;;;;;;;78.78;16.33;;;;;;;;;;5091857;28;20200;-70
2022/03/25 05:55:45;;;;;;;81.28;16.08;;;;;;;;;;5092363;28;20696;-69
2022/03/25 05:58:13;;;;;;;84.55;16.70;;;;;;;;;;5091473;28;20227;-71
2022/03/25 06:00:40;;;;;;;79.63;15.07;;;;;;;;;;5092788;28;20253;-70
2022/03/25 06:03:08;;;;;;;78.68;16.67;;;;;;;;;;5092871;28;20707;-70
2022/03/25 06:05:37;;;;;;;79.22;15.90;;;;;;;;;;5092652;28;20417;-70
2022/03/25 06:08:04;;;;;;;85.90;17.65;;;;;;;;;;5091499;28;20710;-70
2022/03/25 06:10:32;;;;;;;76.47;15.63;;;;;;;;;;5092242;28;20208;-70
2022/03/25 06:13:00;;;;;;;78.30;16.10;;;;;;;;;;5091487;28;20219;-70
2022/03/25 06:15:28;;;;;;;81.85;16.92;;;;;;;;;;5091246;28;20755;-71
2022/03/25 06:17:55;;;;;;;79.82;17.83;;;;;;;;;;5097732;28;20224;-70
2022/03/25 06:20:24;;;;;;;82.85;16.75;;;;;;;;;;5112512;28;20293;-70
2022/03/25 06:22:52;;;;;;;86.38;17.80;;;;;;;;;;5112025;28;20315;-70
2022/03/25 06:25:20;;;;;;;78.38;16.60;;;;;;;;;;5112414;28;20573;-71
2022/03/25 06:27:48;;;;;;;82.15;16.83;;;;;;;;;;5111555;28;20234;-70
2022/03/25 06:30:15;;;;;;;81.95;19.35;;;;;;;;;;5112392;28;20211;-71
2022/03/25 06:32:42;;;;;;;88.03;16.10;;;;;;;;;;5111700;28;20869;-71
2022/03/25 06:35:09;;;;;;;81.57;18.00;;;;;;;;;;5112344;28;20215;-72
2022/03/25 06:37:36;;;;;;;85.40;17.40;;;;;;;;;;5111508;28;20224;-70
2022/03/25 06:40:07;;;;;;;79.15;16.40;;;;;;;;;;5112526;28;20314;-72
2022/03/25 06:42:34;;;;;;;82.55;16.35;;;;;;;;;;5112256;28;20628;-72
2022/03/25 06:45:02;;;;;;;79.68;17.55;;;;;;;;;;5112333;28;20286;-72
2022/03/25 06:47:29;;;;;;;76.90;15.13;;;;;;;;;;5110297;28;20223;-71
2022/03/25 06:49:57;;;;;;;77.05;15.70;;;;;;;;;;5108707;28;20277;-71
2022/03/25 06:52:27;;;;;;;83.45;17.92;;;;;;;;;;5111507;28;20203;-69
2022/03/25 06:54:54;;;;;;;78.20;15.68;;;;;;;;;;5111166;28;20200;-70
2022/03/25 06:57:23;;;;;;;77.72;15.07;;;;;;;;;;5111095;28;20306;-71
2022/03/25 06:59:51;;;;;;;83.18;16.20;;;;;;;;;;5111770;28;20218;-71
2022/03/25 07:02:18;;;;;;;82.88;17.05;;;;;;;;;;5111840;28;20291;-71
2022/03/25 07:04:45;;;;;;;85.15;16.90;;;;;;;;;;5111796;28;20393;-70
2022/03/25 07:07:13;;;;;;;76.28;15.10;;;;;;;;;;5111264;28;20230;-70
2022/03/25 07:09:41;;;;;;;82.10;16.05;;;;;;;;;;5111873;28;20204;-71
2022/03/25 07:12:08;;;;;;;75.57;15.55;;;;;;;;;;5111616;28;20207;-70
2022/03/25 07:14:37;;;;;;;79.45;16.20;;;;;;;;;;5111708;28;20286;-70
2022/03/25 07:17:04;;;;;;;78.45;15.73;;;;;;;;;;5111750;28;20238;-71
2022/03/25 07:19:31;;;;;;;90.32;16.90;;;;;;;;;;5110208;28;20625;-70
2022/03/25 07:21:59;;;;;;;79.45;16.85;;;;;;;;;;5108990;28;20294;-71
2022/03/25 07:24:26;;;;;;;81.32;16.83;;;;;;;;;;5112002;28;20209;-70
2022/03/25 07:26:53;;;;;;;77.03;15.40;;;;;;;;;;5111621;28;20765;-71
2022/03/25 07:29:20;;;;;;;76.50;15.57;;;;;;;;;;5111199;28;20214;-71
2022/03/25 07:31:49;;;;;;;79.70;16.95;;;;;;;;;;5111438;28;20294;-71
2022/03/25 07:34:16;;;;;;;81.00;16.77;;;;;;;;;;5111092;28;20289;-69
2022/03/25 07:36:43;;;;;;;79.57;16.92;;;;;;;;;;5111570;28;20740;-70
2022/03/25 07:39:10;;;;;;;78.90;16.60;;;;;;;;;;5111010;28;20214;-69
2022/03/25 07:41:37;;;;;;;79.05;17.25;;;;;;;;;;5111865;28;20574;-69
2022/03/25 07:44:05;;;;;;;80.03;17.67;;;;;;;;;;5111864;28;20731;-70
2022/03/25 07:46:32;;;;;;;77.75;17.55;;;;;;;;;;5111670;28;20229;-69
2022/03/25 07:49:01;;;;;;;82.28;18.33;;;;;;;;;;5111187;28;20203;-70
2022/03/25 07:51:28;;;;;;;80.15;17.85;;;;;;;;;;5111994;28;20200;-70
2022/03/25 07:53:55;;;;;;;85.32;16.98;;;;;;;;;;5088457;28;20212;-70
2022/03/25 07:56:22;;;;;;;82.28;16.80;;;;;;;;;;5093383;28;20232;-70
2022/03/25 07:58:49;;;;;;;85.28;18.55;;;;;;;;;;5090372;28;20311;-70
2022/03/25 08:01:16;;;;;;;80.63;16.58;;;;;;;;;;5091109;28;20453;-70
2022/03/25 08:03:43;;;;;;;80.13;17.15;;;;;;;;;;5090452;28;20204;-71
2022/03/25 08:06:14;;;;;;;85.10;16.80;;;;;;;;;;5094075;28;20295;-70
2022/03/25 08:08:41;;;;;;;80.53;16.55;;;;;;;;;;5093787;28;20212;-70
2022/03/25 08:11:09;;;;;;;82.18;17.45;;;;;;;;;;5095276;28;20301;-70
2022/03/25 08:13:36;;;;;;;82.35;17.85;;;;;;;;;;5093814;28;20209;-70
2022/03/25 08:16:03;;;;;;;88.80;17.73;;;;;;;;;;5094908;28;20224;-68
2022/03/25 08:18:30;;;;;;;86.25;18.67;;;;;;;;;;5094423;28;20201;-70
2022/03/25 08:20:57;;;;;;;81.32;16.98;;;;;;;;;;5095730;28;20236;-70
2022/03/25 08:28:57;;;;;;;81.65;18.63;;;;;;;;;;5117154;28;20203;-70
2022/03/25 08:31:25;;;;;;;84.82;18.50;;;;;;;;;;5114911;28;20215;-69
2022/03/25 08:33:52;;;;;;;79.90;16.53;;;;;;;;;;5113654;28;20203;-69
2022/03/25 08:36:19;;;;;;;80.10;17.50;;;;;;;;;;5114317;28;20935;-69
2022/03/25 08:38:48;;;;;;;82.07;18.65;;;;;;;;;;5114319;28;20203;-70
2022/03/25 08:41:15;;;;;;;83.13;18.70;;;;;;;;;;5115025;28;20205;-69
2022/03/25 08:43:43;;;;;;;85.63;18.10;;;;;;;;;;5114603;27;20205;-70
2022/03/25 08:46:10;;;;;;;83.30;19.10;;;;;;;;;;5114521;28;20471;-69
2022/03/25 08:48:37;;;;;;;83.27;17.63;;;;;;;;;;5113637;28;20451;-70
2022/03/25 08:51:04;;;;;;;83.60;18.10;;;;;;;;;;5114220;28;20528;-69
2022/03/25 08:53:31;;;;;;;81.90;18.03;;;;;;;;;;5113373;28;20951;-70
2022/03/25 08:56:00;;;;;;;84.80;19.80;;;;;;;;;;5114455;28;20476;-70
2022/03/25 08:58:27;;;;;;;85.43;18.20;;;;;;;;;;5113420;28;20552;-70
2022/03/25 09:00:54;;;;;;;90.67;20.77;;;;;;;;;;5114101;28;20450;-69
2022/03/25 09:03:21;;;;;;;84.10;18.03;;;;;;;;;;5114325;28;20469;-70
2022/03/25 09:05:48;;;;;;;88.73;20.30;;;;;;;;;;5111633;28;20944;-68
2022/03/25 09:08:17;;;;;;;93.97;20.63;;;;;;;;;;5112456;28;20469;-70
2022/03/25 09:10:45;;;;;;;80.73;18.20;;;;;;;;;;5114246;28;20863;-69
2022/03/25 09:13:14;;;;;;;89.13;19.57;;;;;;;;;;5114225;28;20451;-70
2022/03/25 09:15:41;;;;;;;85.60;19.47;;;;;;;;;;5114624;28;20457;-69
2022/03/25 09:18:08;;;;;;;91.67;19.30;;;;;;;;;;5113332;28;20465;-70
2022/03/25 09:20:36;;;;;;;87.80;21.37;;;;;;;;;;5115957;28;20832;-70
2022/03/25 09:23:03;;;;;;;86.30;20.30;;;;;;;;;;5116032;28;20452;-69
2022/03/25 09:25:30;;;;;;;100.17;19.70;;;;;;;;;;5115414;28;20546;-70
2022/03/25 09:27:58;;;;;;;94.33;20.93;;;;;;;;;;5114185;28;20993;-68
2022/03/25 09:30:26;;;;;;;94.53;21.70;;;;;;;;;;5115017;28;20648;-69
2022/03/25 09:32:53;;;;;;;96.50;20.13;;;;;;;;;;5115025;28;21004;-68
2022/03/25 09:35:21;;;;;;;89.40;21.53;;;;;;;;;;5114159;28;20445;-68
2022/03/25 09:37:49;;;;;;;86.83;21.20;;;;;;;;;;5113649;28;20485;-68
2022/03/25 09:40:18;;;;;;;91.63;21.10;;;;;;;;;;5114384;28;20449;-68
2022/03/25 09:42:46;;;;;;;92.27;21.87;;;;;;;;;;5114241;28;20798;-67
2022/03/25 09:45:15;;;;;;;87.47;20.73;;;;;;;;;;5114137;28;20482;-68
2022/03/25 09:47:44;;;;;;;94.73;19.97;;;;;;;;;;5113883;28;20468;-68
2022/03/25 09:50:13;;;;;;;84.97;19.70;;;;;;;;;;5114340;28;20453;-68
2022/03/25 09:52:42;;;;;;;88.70;20.73;;;;;;;;;;5114252;28;20504;-67
2022/03/25 09:55:10;;;;;;;92.63;20.90;;;;;;;;;;5113600;28;20450;-67
2022/03/25 09:57:37;;;;;;;89.17;20.10;;;;;;;;;;5113164;28;20514;-68
2022/03/25 10:00:05;;;;;;;84.07;19.70;;;;;;;;;;5114082;27;20527;-68
2022/03/25 10:02:33;;;;;;;85.80;21.63;;;;;;;;;;5113417;28;20463;-68
2022/03/25 10:05:01;;;;;;;83.67;20.10;;;;;;;;;;5112015;28;21071;-68
2022/03/25 10:07:30;;;;;;;88.20;21.77;;;;;;;;;;5112342;28;20855;-68
2022/03/25 10:10:10;;;;;;;90.00;21.20;;;;;;;;;;5109276;28;20454;-68
2022/03/25 10:12:38;;;;;;;85.63;21.43;;;;;;;;;;5112655;28;20448;-68
2022/03/25 10:15:13;;;;;;;88.17;23.33;;;;;;;;;;5111866;28;20966;-68
2022/03/25 10:17:47;;;;;;;88.27;23.57;;;;;;;;;;5111625;28;20487;-69
2022/03/25 10:20:16;;;;;;;84.77;23.10;;;;;;;;;;5112447;28;20445;-68
2022/03/25 10:22:57;;;;;;;86.60;23.20;;;;;;;;;;5112192;28;20456;-68
2022/03/25 10:25:32;;;;;;;85.47;22.67;;;;;;;;;;5112901;28;20538;-68
2022/03/25 10:27:59;;;;;;;85.47;21.80;;;;;;;;;;5111563;28;20458;-68
2022/03/25 10:30:35;;;;;;;84.37;22.27;;;;;;;;;;5111840;28;20482;-68
2022/03/25 10:33:08;;;;;;;87.40;21.30;;;;;;;;;;5112074;28;20447;-68
2022/03/25 10:35:52;;;;;;;82.30;21.37;;;;;;;;;;5111781;28;20537;-69
2022/03/25 10:38:21;;;;;;;85.63;23.23;;;;;;;;;;5111842;28;20554;-68
2022/03/25 10:40:51;;;;;;;82.57;22.50;;;;;;;;;;5107821;28;20450;-69
2022/03/25 10:43:19;;;;;;;81.07;20.83;;;;;;;;;;5112043;28;20540;-69
2022/03/25 10:45:46;;;;;;;80.57;22.00;;;;;;;;;;5112461;28;20499;-69
2022/03/25 10:48:17;;;;;;;81.33;22.43;;;;;;;;;;5111723;28;20928;-68
2022/03/25 10:51:01;;;;;;;84.40;22.90;;;;;;;;;;5111896;28;20510;-69
2022/03/25 10:53:29;;;;;;;82.13;23.00;;;;;;;;;;5111972;28;20442;-68
2022/03/25 10:55:57;;;;;;;83.80;23.90;;;;;;;;;;5111173;28;20454;-69
2022/03/25 10:58:24;;;;;;;84.27;23.70;;;;;;;;;;5111377;28;20444;-69
2022/03/25 11:00:52;;;;;;;82.47;22.47;;;;;;;;;;5112061;28;20449;-68
2022/03/25 11:03:19;;;;;;;82.10;22.70;;;;;;;;;;5111717;28;20967;-69
2022/03/25 11:05:46;;;;;;;79.70;21.63;;;;;;;;;;5111961;28;20529;-69
2022/03/25 11:08:14;;;;;;;82.20;24.03;;;;;;;;;;5111205;28;20486;-69
2022/03/25 11:10:42;;;;;;;83.27;22.70;;;;;;;;;;5111411;28;20544;-69
2022/03/25 11:13:09;;;;;;;81.60;21.93;;;;;;;;;;5108058;28;20453;-70
2022/03/25 11:15:37;;;;;;;81.20;22.13;;;;;;;;;;5111301;28;20532;-70
2022/03/25 11:18:04;;;;;;;77.20;23.10;;;;;;;;;;5110911;28;20469;-67
2022/03/25 11:20:32;;;;;;;80.67;24.20;;;;;;;;;;5111974;28;20476;-68
2022/03/25 11:23:03;;;;;;;83.30;24.70;;;;;;;;;;5111382;28;20442;-67
2022/03/25 11:25:33;;;;;;;80.07;22.07;;;;;;;;;;5111769;28;20456;-70
2022/03/25 11:28:01;;;;;;;83.10;24.60;;;;;;;;;;5111095;28;20485;-70
2022/03/25 11:30:33;;;;;;;79.47;23.30;;;;;;;;;;5111657;28;20790;-67
2022/03/25 11:33:04;;;;;;;78.80;22.50;;;;;;;;;;5111497;28;20446;-68
2022/03/25 11:35:32;;;;;;;82.40;23.97;;;;;;;;;;5111100;28;21048;-67
2022/03/25 11:38:19;;;;;;;79.90;23.63;;;;;;;;;;5110609;28;20836;-67
2022/03/25 11:40:49;;;;;;;80.03;23.50;;;;;;;;;;5114179;28;21096;-67
2022/03/25 11:43:17;;;;;;;80.00;22.87;;;;;;;;;;5113596;28;20445;-66
2022/03/25 11:45:45;;;;;;;79.70;21.10;;;;;;;;;;5113493;28;20535;-68
2022/03/25 11:48:30;;;;;;;78.30;23.07;;;;;;;;;;5114882;28;20592;-67
2022/03/25 11:51:00;;;;;;;78.97;21.63;;;;;;;;;;5115216;28;20880;-68
2022/03/25 11:53:31;;;;;;;81.30;24.73;;;;;;;;;;5115091;28;20464;-67
2022/03/25 11:56:01;;;;;;;78.70;22.00;;;;;;;;;;5114860;28;20881;-68
2022/03/25 11:58:29;;;;;;;87.33;22.70;;;;;;;;;;5114718;28;20783;-68
2022/03/25 12:00:59;;;;;;;83.63;23.10;;;;;;;;;;5115500;28;20456;-68
2022/03/25 12:03:41;;;;;;;79.37;21.53;;;;;;;;;;5115267;28;20452;-68
2022/03/25 12:06:08;;;;;;;80.27;22.73;;;;;;;;;;5115245;28;20895;-68
2022/03/25 12:08:36;;;;;;;77.27;21.40;;;;;;;;;;5114531;28;21026;-67
2022/03/25 12:11:06;;;;;;;80.03;22.90;;;;;;;;;;5114272;28;20467;-67
2022/03/25 12:13:52;;;;;;;80.00;21.93;;;;;;;;;;5114654;28;20926;-68
2022/03/25 12:16:38;;;;;;;81.70;22.63;;;;;;;;;;5110810;28;20984;-69
2022/03/25 12:19:05;;;;;;;89.67;22.33;;;;;;;;;;5114302;28;20445;-69
2022/03/25 12:21:45;;;;;;;78.67;23.10;;;;;;;;;;5114933;28;20447;-69
2022/03/25 12:24:13;;;;;;;79.67;23.00;;;;;;;;;;5115110;27;20836;-68
2022/03/25 12:26:41;;;;;;;80.00;24.57;;;;;;;;;;5114994;28;20462;-69
2022/03/25 12:29:09;;;;;;;83.10;23.53;;;;;;;;;;5114262;28;20442;-69
2022/03/25 12:31:36;;;;;;;77.80;22.13;;;;;;;;;;5114547;28;20445;-69
2022/03/25 12:34:05;;;;;;;82.90;25.23;;;;;;;;;;5114254;28;20442;-70
2022/03/25 12:36:37;;;;;;;80.10;24.50;;;;;;;;;;5114138;28;20466;-68
2022/03/25 12:39:04;;;;;;;83.20;21.90;;;;;;;;;;5114109;28;20802;-70
2022/03/25 12:41:32;;;;;;;77.53;22.80;;;;;;;;;;5114468;28;20941;-69
2022/03/25 12:44:01;;;;;;;79.40;22.23;;;;;;;;;;5114490;27;20441;-70
2022/03/25 12:46:29;;;;;;;78.53;20.70;;;;;;;;;;5114343;28;20676;-70
2022/03/25 12:49:03;;;;;;;74.77;22.07;;;;;;;;;;5113962;28;20576;-69
2022/03/25 12:51:30;;;;;;;79.40;20.40;;;;;;;;;;5113692;28;20536;-69
2022/03/25 12:53:57;;;;;;;77.60;22.30;;;;;;;;;;5110711;28;20452;-69
2022/03/25 12:56:24;;;;;;;76.30;21.47;;;;;;;;;;5113720;28;20466;-69
2022/03/25 12:58:53;;;;;;;77.53;21.97;;;;;;;;;;5112831;27;20452;-69
2022/03/25 13:01:21;;;;;;;77.77;20.70;;;;;;;;;;5114303;28;20865;-69
2022/03/25 13:03:49;;;;;;;74.37;20.20;;;;;;;;;;5113902;28;20441;-69
2022/03/25 13:06:17;;;;;;;74.67;19.23;;;;;;;;;;5113831;27;20530;-69
2022/03/25 13:08:45;;;;;;;76.70;19.63;;;;;;;;;;5113476;28;20520;-69
2022/03/25 13:11:14;;;;;;;77.10;19.80;;;;;;;;;;5114027;28;20448;-69
2022/03/25 13:13:41;;;;;;;76.87;20.50;;;;;;;;;;5113463;28;20445;-69
2022/03/25 13:16:09;;;;;;;74.70;20.60;;;;;;;;;;5113192;28;20540;-69
2022/03/25 13:18:38;;;;;;;78.90;19.80;;;;;;;;;;5112515;28;20442;-69
2022/03/25 13:21:06;;;;;;;74.47;20.20;;;;;;;;;;5113972;28;21006;-69
2022/03/25 13:23:33;;;;;;;77.67;19.70;;;;;;;;;;5112581;28;20579;-70
2022/03/25 13:26:01;;;;;;;81.87;18.90;;;;;;;;;;5110535;28;20453;-69
2022/03/25 13:28:30;;;;;;;73.03;20.20;;;;;;;;;;5113431;28;20572;-69
2022/03/25 13:30:58;;;;;;;78.57;20.93;;;;;;;;;;5113578;28;20544;-69
2022/03/25 13:33:27;;;;;;;74.20;20.17;;;;;;;;;;5113263;28;20442;-68
2022/03/25 13:35:56;;;;;;;74.97;20.10;;;;;;;;;;5112981;28;20549;-69
2022/03/25 13:38:24;;;;;;;73.10;20.83;;;;;;;;;;5111715;28;20536;-69
2022/03/25 13:40:52;;;;;;;76.70;20.53;;;;;;;;;;5113206;28;20453;-69
2022/03/25 13:43:21;;;;;;;76.10;18.37;;;;;;;;;;5113302;28;20452;-69
2022/03/25 13:45:59;;;;;;;74.83;19.37;;;;;;;;;;5112944;28;20938;-69
2022/03/25 13:48:26;;;;;;;73.87;18.63;;;;;;;;;;5112727;28;20481;-69
2022/03/25 13:50:54;;;;;;;74.77;19.40;;;;;;;;;;5113255;28;20528;-69
2022/03/25 13:53:38;;;;;;;75.37;20.33;;;;;;;;;;5113009;28;20446;-69
2022/03/25 13:56:13;;;;;;;74.83;19.43;;;;;;;;;;5108105;28;20449;-69
2022/03/25 13:58:40;;;;;;;77.10;21.07;;;;;;;;;;5111380;28;20868;-69
2022/03/25 14:01:08;;;;;;;76.37;20.27;;;;;;;;;;5113245;27;20478;-69
2022/03/25 14:03:35;;;;;;;75.27;19.97;;;;;;;;;;5112063;28;20452;-69
2022/03/25 14:06:11;;;;;;;76.10;18.77;;;;;;;;;;5112783;28;20540;-69
2022/03/25 14:08:40;;;;;;;77.60;19.70;;;;;;;;;;5112180;28;20557;-68
2022/03/25 14:11:07;;;;;;;72.60;19.30;;;;;;;;;;5112940;28;20815;-69
2022/03/25 14:13:34;;;;;;;77.63;19.13;;;;;;;;;;5112371;28;20442;-69
2022/03/25 14:16:14;;;;;;;73.00;17.43;;;;;;;;;;5112197;28;20446;-69
2022/03/25 14:18:49;;;;;;;74.87;19.27;;;;;;;;;;5111030;28;20548;-68
2022/03/25 14:21:23;;;;;;;73.87;18.27;;;;;;;;;;5112517;28;20961;-69
2022/03/25 14:24:30;;;;;;;76.50;18.77;;;;;;;;;;5112503;28;20556;-69
2022/03/25 14:26:40;;;;;;;75.07;19.50;;;;;;;;;;5110168;28;20477;-68
2022/03/25 14:29:08;;;;;;;78.70;21.10;;;;;;;;;;5110205;28;20477;-69